createdAt,value
2022-09-22T00:03:06.719Z,94.21
2022-09-22T00:08:07.440Z,94.23
2022-09-22T00:13:08.484Z,95.03
2022-09-22T00:18:09.266Z,94.73
2022-09-22T00:23:10.277Z,95.13
2022-09-22T00:28:12.205Z,93.42
2022-09-22T00:33:12.988Z,93.56
2022-09-22T00:38:13.699Z,93.58
2022-09-22T00:43:25.059Z,94.62
2022-09-22T00:48:30.680Z,95.71
2022-09-22T00:53:31.679Z,94.63
2022-09-22T00:58:40.440Z,95.26
2022-09-22T01:03:42.037Z,96.06
2022-09-22T01:08:44.298Z,93.79
2022-09-22T01:17:17.721Z,96.37
2022-09-22T01:23:38.545Z,97.16
2022-09-22T01:29:04.335Z,97.49
2022-09-22T01:34:22.532Z,97.50
2022-09-22T01:39:34.249Z,97.06
2022-09-22T01:44:42.718Z,96.90
2022-09-22T01:49:49.890Z,97.33
2022-09-22T01:55:00.849Z,97.26
2022-09-22T02:00:05.360Z,97.58
2022-09-22T02:05:19.220Z,97.66
2022-09-22T02:10:25.113Z,97.82
2022-09-22T02:15:44.921Z,97.61
2022-09-22T02:20:45.833Z,97.68
2022-09-22T02:25:48.844Z,97.78
2022-09-22T02:31:10.890Z,98.21
2022-09-22T02:38:14.725Z,98.13
2022-09-22T02:43:35.057Z,98.44
2022-09-22T02:48:44.248Z,98.39
2022-09-22T02:53:45.761Z,98.71
2022-09-22T02:58:46.569Z,98.83
2022-09-22T03:03:47.376Z,99.29
2022-09-22T03:08:48.142Z,100.00
2022-09-22T03:13:49.249Z,100.00
2022-09-22T03:18:50.583Z,100.00
2022-09-22T03:23:51.536Z,100.00
2022-09-22T03:28:52.757Z,98.84
2022-09-22T03:33:53.601Z,99.44
2022-09-22T03:38:54.578Z,98.56
2022-09-22T03:43:55.379Z,99.31
2022-09-22T03:48:56.287Z,100.00
2022-09-22T03:53:57.097Z,98.81
2022-09-22T03:58:57.951Z,99.35
2022-09-22T04:03:58.702Z,99.72
2022-09-22T04:09:00.886Z,99.22
2022-09-22T04:14:03.089Z,98.67
2022-09-22T04:19:04.128Z,99.36
2022-09-22T04:24:07.010Z,99.23
2022-09-22T04:29:08.013Z,99.79
2022-09-22T04:34:08.879Z,99.42
2022-09-22T04:39:09.603Z,98.98
2022-09-22T04:44:10.361Z,99.28
2022-09-22T04:49:12.908Z,99.49
2022-09-22T04:54:14.079Z,99.76
2022-09-22T04:59:14.845Z,98.52
2022-09-22T05:04:15.989Z,99.05
2022-09-22T05:09:17.170Z,98.44
2022-09-22T05:14:21.605Z,98.78
2022-09-22T05:19:25.229Z,98.84
2022-09-22T05:24:26.457Z,99.50
2022-09-22T05:29:28.114Z,99.42
2022-09-22T05:34:29.072Z,100.00
2022-09-22T05:39:30.205Z,96.23
2022-09-22T05:44:30.945Z,92.30
2022-09-22T05:49:31.778Z,90.71
2022-09-22T05:54:32.500Z,90.05
2022-09-22T05:59:33.282Z,89.55
2022-09-22T06:04:34.259Z,88.62
2022-09-22T06:09:35.467Z,87.66
2022-09-22T06:14:36.246Z,88.69
2022-09-22T06:19:38.591Z,88.02
2022-09-22T06:24:39.616Z,86.78
2022-09-22T06:29:40.985Z,86.72
2022-09-22T06:34:43.903Z,91.75
2022-09-22T06:39:44.947Z,90.08
2022-09-22T06:44:46.714Z,87.25
2022-09-22T06:49:47.541Z,88.08
2022-09-22T06:54:51.251Z,90.40
2022-09-22T06:59:53.463Z,90.48
2022-09-22T07:04:58.219Z,90.49
2022-09-22T07:09:58.985Z,90.48
2022-09-22T07:15:00.146Z,87.90
2022-09-22T07:20:01.670Z,85.75
2022-09-22T07:25:02.777Z,83.77
2022-09-22T07:30:04.213Z,85.08
2022-09-22T07:35:05.744Z,83.59
2022-09-22T07:40:07.601Z,84.22
2022-09-22T07:45:12.006Z,84.63
2022-09-22T07:50:16.432Z,83.88
2022-09-22T07:55:17.295Z,85.75
2022-09-22T08:00:18.059Z,91.28
2022-09-22T08:05:19.285Z,88.04
2022-09-22T08:10:20.198Z,84.26
2022-09-22T08:15:26.185Z,83.21
2022-09-22T08:20:29.384Z,80.27
2022-09-22T08:25:30.865Z,77.89
2022-09-22T08:30:31.655Z,76.53
2022-09-22T08:35:33.961Z,78.26
2022-09-22T08:40:34.945Z,71.97
2022-09-22T08:45:40.233Z,75.49
2022-09-22T08:51:15.026Z,73.72
2022-09-22T08:56:45.760Z,74.14
2022-09-22T09:02:07.763Z,76.12
2022-09-22T09:10:14.821Z,71.96
2022-09-22T09:15:33.156Z,68.77
2022-09-22T09:20:44.103Z,68.86
2022-09-22T09:25:52.849Z,66.44
2022-09-22T09:31:06.808Z,63.95
2022-09-22T09:36:17.536Z,59.66
2022-09-22T09:41:36.587Z,61.40
2022-09-22T09:50:31.349Z,58.70
2022-09-22T09:55:34.469Z,56.02
2022-09-22T10:00:55.679Z,56.60
2022-09-22T10:06:03.710Z,55.80
2022-09-22T10:11:04.793Z,49.06
2022-09-22T10:16:19.252Z,54.27
2022-09-22T10:21:22.080Z,50.64
2022-09-22T10:26:29.458Z,53.50
2022-09-22T10:31:31.519Z,53.52
2022-09-22T10:36:35.210Z,57.32
2022-09-22T10:41:37.536Z,55.27
2022-09-22T10:47:39.772Z,52.64
2022-09-22T10:52:51.077Z,52.31
2022-09-22T10:59:55.549Z,49.13
2022-09-22T11:07:20.181Z,51.93
2022-09-22T11:13:02.461Z,50.64
2022-09-22T11:19:12.396Z,51.72
2022-09-22T11:26:05.133Z,46.76
2022-09-22T11:31:07.175Z,51.42
2022-09-22T11:36:40.767Z,51.96
2022-09-22T11:42:00.259Z,49.71
2022-09-22T11:48:13.594Z,52.13
2022-09-22T11:55:17.904Z,52.75
2022-09-22T12:00:20.807Z,53.56
2022-09-22T12:05:47.698Z,50.20
2022-09-22T12:10:50.605Z,51.01
2022-09-22T12:16:11.954Z,49.71
2022-09-22T12:21:44.411Z,50.19
2022-09-22T12:26:47.584Z,48.82
2022-09-22T12:31:51.134Z,47.85
2022-09-22T12:36:56.466Z,47.77
2022-09-22T12:42:02.562Z,46.30
2022-09-22T12:47:07.249Z,44.75
2022-09-22T12:53:28.024Z,48.26
2022-09-22T12:58:39.761Z,45.20
2022-09-22T13:03:48.811Z,45.39
2022-09-22T13:09:20.900Z,43.42
2022-09-22T13:14:56.426Z,45.59
2022-09-22T13:19:57.137Z,46.34
2022-09-22T13:24:58.021Z,47.78
2022-09-22T13:29:58.746Z,46.08
2022-09-22T13:34:59.613Z,44.52
2022-09-22T13:40:01.258Z,47.41
2022-09-22T13:45:17.941Z,45.88
2022-09-22T13:50:22.403Z,47.35
2022-09-22T13:55:33.162Z,47.17
2022-09-22T14:01:08.812Z,46.02
2022-09-22T14:06:19.371Z,44.39
2022-09-22T14:11:23.692Z,47.60
2022-09-22T14:17:28.565Z,45.17
2022-09-22T14:22:39.539Z,44.99
2022-09-22T14:27:49.126Z,44.75
2022-09-22T14:32:53.806Z,44.45
2022-09-22T14:37:59.196Z,44.83
2022-09-22T14:43:20.129Z,44.65
2022-09-22T14:48:29.300Z,46.11
2022-09-22T14:53:56.773Z,46.61
2022-09-22T15:02:31.418Z,46.44
2022-09-22T15:07:34.959Z,45.51
2022-09-22T15:12:45.053Z,47.00
2022-09-22T15:18:12.268Z,46.28
2022-09-22T15:23:44.067Z,46.81
2022-09-22T15:28:46.917Z,46.90
2022-09-22T15:33:48.484Z,46.23
2022-09-22T15:38:49.570Z,46.95
2022-09-22T15:43:50.510Z,45.44
2022-09-22T15:48:51.836Z,45.93
2022-09-22T15:53:52.963Z,46.86
2022-09-22T15:58:57.845Z,47.52
2022-09-22T16:04:00.483Z,47.50
2022-09-22T16:09:01.329Z,48.30
2022-09-22T16:14:05.688Z,49.47
2022-09-22T16:19:09.709Z,49.93
2022-09-22T16:24:11.053Z,50.21
2022-09-22T16:29:12.353Z,50.78
2022-09-22T16:34:13.086Z,51.66
2022-09-22T16:39:13.852Z,51.22
2022-09-22T16:44:15.218Z,52.25
2022-09-22T16:49:16.641Z,51.63
2022-09-22T16:54:18.666Z,53.33
2022-09-22T16:59:22.187Z,53.82
2022-09-22T17:04:23.112Z,54.43
2022-09-22T17:09:24.117Z,54.83
2022-09-22T17:14:26.999Z,57.37
2022-09-22T17:19:27.952Z,60.50
2022-09-22T17:24:29.657Z,62.27
2022-09-22T17:29:31.877Z,63.71
2022-09-22T17:34:33.961Z,64.62
2022-09-22T17:39:35.126Z,66.68
2022-09-22T17:44:35.892Z,70.34
2022-09-22T17:49:56.570Z,70.93
2022-09-22T17:55:06.204Z,71.34
2022-09-22T18:00:20.263Z,71.58
2022-09-22T18:05:25.866Z,72.54
2022-09-22T18:10:30.305Z,74.17
2022-09-22T18:15:31.086Z,75.67
2022-09-22T18:20:32.808Z,76.62
2022-09-22T18:25:34.277Z,77.20
2022-09-22T18:30:35.811Z,78.36
2022-09-22T18:35:36.616Z,79.78
2022-09-22T18:40:37.435Z,80.90
2022-09-22T18:45:38.715Z,80.60
2022-09-22T18:50:40.140Z,80.58
2022-09-22T18:55:41.191Z,82.10
2022-09-22T19:00:41.923Z,82.92
2022-09-22T19:05:42.704Z,83.16
2022-09-22T19:10:43.444Z,81.84
2022-09-22T19:15:44.360Z,82.87
2022-09-22T19:20:45.139Z,82.71
2022-09-22T19:25:50.968Z,83.49
2022-09-22T19:30:51.774Z,83.01
2022-09-22T19:35:52.574Z,82.51
2022-09-22T19:40:55.426Z,82.92
2022-09-22T19:45:56.387Z,83.35
2022-09-22T19:50:58.743Z,82.93
2022-09-22T19:56:01.194Z,82.16
2022-09-22T20:01:05.633Z,82.11
2022-09-22T20:06:06.928Z,82.36
2022-09-22T20:11:25.635Z,83.54
2022-09-22T20:16:27.629Z,83.41
2022-09-22T20:21:28.607Z,85.76
2022-09-22T20:26:30.609Z,83.83
2022-09-22T20:31:31.718Z,82.29
2022-09-22T20:36:36.882Z,82.63
2022-09-22T20:41:39.910Z,82.10
2022-09-22T20:46:41.943Z,81.54
2022-09-22T20:51:42.809Z,82.32
2022-09-22T20:56:44.664Z,82.77
2022-09-22T21:01:46.169Z,82.61
2022-09-22T21:06:47.059Z,83.58
2022-09-22T21:11:47.790Z,82.81
2022-09-22T21:16:50.799Z,84.54
2022-09-22T21:21:51.543Z,85.30
2022-09-22T21:26:52.565Z,85.59
2022-09-22T21:31:53.297Z,85.64
2022-09-22T21:36:54.046Z,85.97
2022-09-22T21:41:55.627Z,86.23
2022-09-22T21:46:56.384Z,86.44
2022-09-22T21:51:57.110Z,86.93
2022-09-22T21:56:58.217Z,87.13
2022-09-22T22:01:59.212Z,88.10
2022-09-22T22:07:00.894Z,88.72
2022-09-22T22:12:01.643Z,88.72
2022-09-22T22:17:04.870Z,88.70
2022-09-22T22:22:05.719Z,88.32
2022-09-22T22:27:09.220Z,89.54
2022-09-22T22:32:09.974Z,90.22
2022-09-22T22:37:10.973Z,90.51
2022-09-22T22:42:11.726Z,90.85
2022-09-22T22:47:12.745Z,91.64
2022-09-22T22:52:13.503Z,92.30
2022-09-22T22:57:14.700Z,93.39
2022-09-22T23:02:15.432Z,93.47
2022-09-22T23:07:16.186Z,92.76
2022-09-22T23:12:18.394Z,92.21
2022-09-22T23:17:19.169Z,93.10
2022-09-22T23:22:20.119Z,93.27
2022-09-22T23:27:20.990Z,93.70
2022-09-22T23:32:22.852Z,94.17
2022-09-22T23:37:24.102Z,94.17
2022-09-22T23:42:25.072Z,94.71
2022-09-22T23:47:25.819Z,94.68
2022-09-22T23:52:26.651Z,94.32
2022-09-22T23:57:27.447Z,94.46
